Hanjin Sanfrancisco — 3FXR — position and weather

sailwx.info

Track history (hours):
 
Tides and Currents Weather Stations Pressure Air Temp Water Temp Dewpoint Dewpoint Depression Visibility Wind Speed Wind Dir Waves Ship Positions

Hanjin Sanfrancisco

Last reported at 2017-Dec-17 18:47 UTC. Time now 2017-Dec-18 16:56 UTC.
Position N 48°32' W 006°06'.

Length 289 m; draft 11.1 m.

Type: Cargo ship. MMSI: 351989000.

Date/timePositionNaut miles runAvg speedWind from/ knotsBaromVisibWave heightAir tempDewpointWater temp
2017-Dec-17 18:47N 48°32' W 006°06'411.8
2017-Dec-17 18:27N 48°35' W 006°03'511.6
2017-Dec-17 17:59N 48°40' W 005°58'611.5
2017-Dec-17 17:30N 48°44' W 005°54'611.0
2017-Dec-17 17:00N 48°49' W 005°50'710.8
2017-Dec-17 16:21N 48°55' W 005°44'410.4
2017-Dec-17 15:59N 48°57' W 005°40'6 9.8
2017-Dec-17 15:25N 49°01' W 005°33'8711.5
2017-Dec-17 07:49N 49°44' W 003°37'411.6
2017-Dec-17 07:28N 49°46' W 003°31'511.1
2017-Dec-17 07:01N 49°48' W 003°24'510.7
2017-Dec-17 06:31N 49°51' W 003°17'510.7
2017-Dec-17 06:01N 49°54' W 003°10'510.6
2017-Dec-17 05:31N 49°56' W 003°03'510.9
2017-Dec-17 05:01N 49°59' W 002°55'611.1
2017-Dec-17 04:31N 50°01' W 002°47'611.5
2017-Dec-17 04:01N 50°02' W 002°39'8813.6
2017-Dec-16 21:33N 50°26' W 000°27'110.9
2017-Dec-16 21:30N 50°26' W 000°26'510.7
2017-Dec-16 21:00N 50°28' W 000°18'510.4
2017-Dec-16 20:30N 50°29' W 000°10'510.0
2017-Dec-16 20:00N 50°31' W 000°03'5 9.8
2017-Dec-16 19:30N 50°32' E 000°05'5 9.8
2017-Dec-16 19:00N 50°33' E 000°12'510.2
2017-Dec-16 18:30N 50°35' E 000°20'510.7
2017-Dec-16 18:00N 50°36' E 000°28'611.5
2017-Dec-16 17:30N 50°38' E 000°36'612.4
2017-Dec-16 17:00N 50°42' E 000°44'713.1
2017-Dec-16 16:30N 50°46' E 000°52'713.3
2017-Dec-16 16:00N 50°50' E 001°01'713.3
2017-Dec-16 15:30N 50°54' E 001°09'613.0
2017-Dec-16 15:00N 50°59' E 001°17'612.6
2017-Dec-16 14:30N 51°03' E 001°24'611.9
2017-Dec-16 14:00N 51°07' E 001°31'510.8
2017-Dec-16 13:30N 51°11' E 001°37'510.5
2017-Dec-16 13:00N 51°16' E 001°38'510.8
2017-Dec-16 12:30N 51°21' E 001°37'611.6
2017-Dec-16 12:01N 51°26' E 001°32'4 8.7
2017-Dec-16 11:30N 51°28' E 001°25'611.9
2017-Dec-16 11:00N 51°29' E 001°16'611.5
2017-Dec-16 10:28N 51°29' E 001°06'9 0.5
2017-Dec-15 14:38N 51°30' E 000°51'0 0.0
2017-Dec-15 12:37N 51°30' E 000°51'0 0.1
2017-Dec-15 12:30N 51°30' E 000°51'0 0.0
2017-Dec-15 12:00N 51°30' E 000°51'0 0.0
2017-Dec-15 11:30N 51°30' E 000°51'0 0.1
2017-Dec-15 11:00N 51°30' E 000°51'0 0.0
2017-Dec-15 10:30N 51°30' E 000°51'0 0.1
2017-Dec-15 10:00N 51°30' E 000°51'0 0.1
2017-Dec-15 09:30N 51°30' E 000°51'0 0.1
2017-Dec-15 09:00N 51°30' E 000°51'0 0.0
2017-Dec-15 08:29N 51°30' E 000°51'0 0.0
2017-Dec-15 08:00N 51°30' E 000°51'0 0.0
2017-Dec-15 07:30N 51°30' E 000°51'0 0.0
2017-Dec-15 07:00N 51°30' E 000°51'0 0.0
2017-Dec-15 06:30N 51°30' E 000°51'0 0.1
2017-Dec-15 06:00N 51°30' E 000°51'0 0.2
2017-Dec-15 05:30N 51°30' E 000°51'0 0.0
2017-Dec-15 05:00N 51°30' E 000°51'0 0.0
2017-Dec-15 04:30N 51°30' E 000°51'0 0.0
2017-Dec-15 04:00N 51°30' E 000°51'0 0.0
2017-Dec-15 02:30N 51°30' E 000°51'0 0.0
2017-Dec-15 01:00N 51°30' E 000°51'0 0.0
2017-Dec-15 00:30N 51°30' E 000°51'0 0.0
2017-Dec-14 18:30N 51°30' E 000°51'0 0.0
2017-Dec-14 18:00N 51°30' E 000°51'0 0.2
2017-Dec-14 17:30N 51°30' E 000°51'0 0.2
2017-Dec-14 16:59N 51°30' E 000°51'0 0.0
2017-Dec-14 16:31N 51°30' E 000°51'0 0.0
2017-Dec-14 16:00N 51°30' E 000°51'0 0.0
2017-Dec-14 15:00N 51°30' E 000°51'0 0.0
2017-Dec-14 14:30N 51°30' E 000°51'0 0.0
2017-Dec-14 14:00N 51°30' E 000°51'0 0.0
2017-Dec-14 13:30N 51°30' E 000°51'0 0.0
2017-Dec-14 13:00N 51°30' E 000°51'0 0.0
2017-Dec-14 12:30N 51°30' E 000°51'0 0.0
2017-Dec-14 12:00N 51°30' E 000°51'0 0.0
2017-Dec-14 11:31N 51°30' E 000°51'0 0.0
2017-Dec-14 11:01N 51°30' E 000°51'0 0.0
2017-Dec-14 10:30N 51°30' E 000°51'0 0.0
2017-Dec-14 10:01N 51°30' E 000°51'0 0.1
2017-Dec-14 09:30N 51°30' E 000°51'0 0.0
2017-Dec-14 09:00N 51°30' E 000°51'0 0.1
2017-Dec-14 08:31N 51°30' E 000°51'0 0.1
2017-Dec-14 08:00N 51°30' E 000°51'0 0.1
2017-Dec-14 07:30N 51°30' E 000°51'0 0.0
2017-Dec-14 07:00N 51°30' E 000°51'0 0.1
2017-Dec-14 06:31N 51°30' E 000°51'0 0.0
2017-Dec-14 06:00N 51°30' E 000°51'0 0.1
2017-Dec-14 05:30N 51°30' E 000°51'0 0.1
2017-Dec-14 05:00N 51°30' E 000°51'0 0.0
2017-Dec-14 04:30N 51°30' E 000°51'0 0.0
2017-Dec-14 04:00N 51°30' E 000°51'0 0.1
2017-Dec-14 03:30N 51°30' E 000°51'0 0.0
2017-Dec-14 03:00N 51°30' E 000°51'0 0.0
2017-Dec-14 02:30N 51°30' E 000°51'0 0.0
2017-Dec-14 02:00N 51°30' E 000°51'0 0.0
2017-Dec-14 01:30N 51°30' E 000°51'0 0.1
2017-Dec-14 01:00N 51°30' E 000°51'0 0.0
2017-Dec-14 00:30N 51°30' E 000°51'0 0.0
2017-Dec-14 00:00N 51°30' E 000°51'0 0.0
2017-Dec-13 23:30N 51°30' E 000°51'0 0.0
2017-Dec-13 23:00N 51°30' E 000°51'0 0.1
2017-Dec-13 22:31N 51°30' E 000°51'0 0.0
2017-Dec-13 22:00N 51°30' E 000°51'0 0.1
2017-Dec-13 21:30N 51°30' E 000°51'0 0.0
2017-Dec-13 21:00N 51°30' E 000°51'0 0.1
2017-Dec-13 20:30N 51°30' E 000°51'0 0.2
2017-Dec-13 20:00N 51°30' E 000°51'0 0.0
2017-Dec-13 19:31N 51°30' E 000°51'0 0.1
2017-Dec-13 19:01N 51°30' E 000°51'0 0.0
2017-Dec-13 18:31N 51°30' E 000°51'0 0.0
2017-Dec-13 18:00N 51°30' E 000°51'0 0.2
2017-Dec-13 17:30N 51°30' E 000°51'0 0.1
2017-Dec-13 17:00N 51°30' E 000°51'0 0.1
2017-Dec-13 16:31N 51°30' E 000°51'0 0.3
2017-Dec-13 16:00N 51°30' E 000°51'0 0.0
2017-Dec-13 15:30N 51°30' E 000°51'0 0.1
2017-Dec-13 15:00N 51°30' E 000°51'0 0.0
2017-Dec-13 14:31N 51°30' E 000°51'0 0.0
2017-Dec-13 14:01N 51°30' E 000°51'0 0.0
2017-Dec-13 13:30N 51°30' E 000°51'0 0.0
2017-Dec-13 13:00N 51°30' E 000°51'0 0.0
2017-Dec-12 21:29N 51°30' E 000°51'0 0.1
2017-Dec-12 21:00N 51°30' E 000°51'0 0.0
2017-Dec-12 20:30N 51°30' E 000°51'0 0.1
2017-Dec-12 20:00N 51°30' E 000°51'0 0.1
2017-Dec-12 19:30N 51°30' E 000°51'0 0.1
2017-Dec-12 19:00N 51°30' E 000°51'0 0.0
2017-Dec-12 18:30N 51°30' E 000°51'0 0.0
2017-Dec-12 18:00N 51°30' E 000°51'0 0.0
2017-Dec-12 17:30N 51°30' E 000°51'0 0.0
2017-Dec-12 17:00N 51°30' E 000°51'0 0.0
2017-Dec-12 16:30N 51°30' E 000°51'0 0.0
2017-Dec-12 16:00N 51°30' E 000°51'0 0.1
2017-Dec-12 15:30N 51°30' E 000°51'0 0.0
2017-Dec-12 15:00N 51°30' E 000°51'0 0.2
2017-Dec-12 14:30N 51°30' E 000°51'0 0.0
2017-Dec-12 14:00N 51°30' E 000°51'0 0.0
2017-Dec-12 13:30N 51°30' E 000°51'0 0.0
2017-Dec-12 13:00N 51°30' E 000°51'0 0.0
2017-Dec-12 12:30N 51°30' E 000°51'0 0.0
2017-Dec-12 12:00N 51°30' E 000°51'0 0.0
2017-Dec-12 11:30N 51°30' E 000°51'0 0.0
2017-Dec-12 11:00N 51°30' E 000°51'0 0.0
2017-Dec-12 10:30N 51°30' E 000°51'0 0.0
2017-Dec-12 10:00N 51°30' E 000°51'0 0.0
2017-Dec-12 09:30N 51°30' E 000°51'0 0.0
2017-Dec-12 09:00N 51°30' E 000°51'0 0.0
2017-Dec-12 08:30N 51°30' E 000°51'0 0.0
2017-Dec-12 08:00N 51°30' E 000°51'0 0.0
2017-Dec-12 07:30N 51°30' E 000°51'0 0.1
2017-Dec-12 06:59N 51°30' E 000°51'0 0.1
2017-Dec-12 06:30N 51°30' E 000°51'0 0.1
2017-Dec-12 06:00N 51°30' E 000°51'0 0.0
2017-Dec-12 05:30N 51°30' E 000°51'0 0.1
2017-Dec-12 05:00N 51°30' E 000°51'0 0.0
2017-Dec-12 04:30N 51°30' E 000°51'0 0.0
2017-Dec-12 04:00N 51°30' E 000°51'0 0.0
2017-Dec-12 03:30N 51°30' E 000°51'0 0.0
2017-Dec-12 03:00N 51°30' E 000°51'0 0.1
2017-Dec-12 02:30N 51°30' E 000°51'0 0.1
2017-Dec-12 02:00N 51°30' E 000°51'0 0.1
2017-Dec-12 01:30N 51°30' E 000°51'0 0.0
2017-Dec-12 01:00N 51°30' E 000°51'0 0.0
2017-Dec-12 00:30N 51°30' E 000°51'0 0.0
2017-Dec-12 00:00N 51°30' E 000°51'0 0.0
2017-Dec-11 23:30N 51°30' E 000°51'0 0.0
2017-Dec-11 23:00N 51°30' E 000°51'0 0.0
2017-Dec-11 22:30N 51°30' E 000°51'0 0.0
2017-Dec-11 22:00N 51°30' E 000°51'0 0.0
2017-Dec-11 21:30N 51°30' E 000°51'0 0.0
2017-Dec-11 21:00N 51°30' E 000°51'0 0.0
2017-Dec-11 20:30N 51°30' E 000°51'0 0.0
2017-Dec-11 20:00N 51°30' E 000°51'0 0.0
2017-Dec-11 19:30N 51°30' E 000°51'0 0.1
2017-Dec-11 18:52N 51°30' E 000°51'0 0.2
2017-Dec-11 18:30N 51°30' E 000°51'0 0.1
2017-Dec-11 18:00N 51°30' E 000°51'0 0.0
2017-Dec-11 17:30N 51°30' E 000°51'0 0.0
2017-Dec-11 17:00N 51°30' E 000°51'0 0.0
2017-Dec-11 16:30N 51°30' E 000°51'0 0.0
2017-Dec-11 15:59N 51°30' E 000°51'0 0.0
2017-Dec-11 15:30N 51°30' E 000°51'0 0.0
2017-Dec-11 15:00N 51°30' E 000°51'0 0.1
2017-Dec-11 14:30N 51°30' E 000°51'0 0.0
2017-Dec-11 14:00N 51°30' E 000°51'0 0.0
2017-Dec-11 13:30N 51°30' E 000°51'0 0.1
2017-Dec-11 13:00N 51°30' E 000°51'1 1.0
2017-Dec-11 12:31N 51°29' E 000°51'3 6.9
2017-Dec-11 12:00N 51°29' E 000°46'612.4
2017-Dec-11 11:31N 51°30' E 000°36'611.8
2017-Dec-11 11:01N 51°28' E 000°27'5 9.6
2017-Dec-11 10:31N 51°28' E 000°19'2 4.3
2017-Dec-11 10:01N 51°28' E 000°16'0 0.0
2017-Dec-11 09:16N 51°28' E 000°16'0 0.0
2017-Dec-11 09:01N 51°28' E 000°16'0 0.0
2017-Dec-11 08:31N 51°28' E 000°16'0 0.0
2017-Dec-11 08:01N 51°28' E 000°16'0 0.0
2017-Dec-11 07:31N 51°28' E 000°16'0 0.0
2017-Dec-11 07:01N 51°28' E 000°16'0 0.0
2017-Dec-11 06:31N 51°28' E 000°16'0 0.0
2017-Dec-11 06:01N 51°28' E 000°16'0 0.0
2017-Dec-11 05:31N 51°28' E 000°16'0 0.0
2017-Dec-11 05:01N 51°28' E 000°16'0 0.0
2017-Dec-11 04:31N 51°28' E 000°16'0 0.0
2017-Dec-11 04:01N 51°28' E 000°16'0 0.0
2017-Dec-11 03:31N 51°28' E 000°16'0 0.0
2017-Dec-11 03:01N 51°28' E 000°16'0 0.0
2017-Dec-11 02:31N 51°28' E 000°16'0 0.0
2017-Dec-11 02:00N 51°28' E 000°16'0 0.0
2017-Dec-11 01:31N 51°28' E 000°16'0 0.0
2017-Dec-11 01:01N 51°28' E 000°16'0 0.0
2017-Dec-11 00:31N 51°28' E 000°16'0 0.0
2017-Dec-11 00:01N 51°28' E 000°16'0 0.0
2017-Dec-10 23:30N 51°28' E 000°16'0 0.0
2017-Dec-10 23:01N 51°28' E 000°16'0 0.0
2017-Dec-10 22:31N 51°28' E 000°16'0 0.0
2017-Dec-10 22:01N 51°28' E 000°16'0 0.0
2017-Dec-10 21:31N 51°28' E 000°16'0 0.0
2017-Dec-09 04:14N 51°28' E 000°16'0 0.0
2017-Dec-09 04:01N 51°28' E 000°16'0 0.0
2017-Dec-09 03:31N 51°28' E 000°16'0 0.0
2017-Dec-09 03:01N 51°28' E 000°16'0 0.0
2017-Dec-09 02:31N 51°28' E 000°16'0 0.0
2017-Dec-09 02:01N 51°28' E 000°16'0 0.0
2017-Dec-09 01:31N 51°28' E 000°16'0 0.0
2017-Dec-09 01:01N 51°28' E 000°16'0 0.0
2017-Dec-09 00:31N 51°28' E 000°16'0 0.0
2017-Dec-09 00:01N 51°28' E 000°16'0 0.0
2017-Dec-08 23:31N 51°28' E 000°16'0 0.0
2017-Dec-08 23:01N 51°28' E 000°16'0 0.0
2017-Dec-08 22:31N 51°28' E 000°16'0 0.0
2017-Dec-08 22:01N 51°28' E 000°16'0 0.0
2017-Dec-08 21:31N 51°28' E 000°16'0 0.0
2017-Dec-08 21:01N 51°28' E 000°16'0 0.0
2017-Dec-08 20:31N 51°28' E 000°16'0 0.0
2017-Dec-08 20:01N 51°28' E 000°16'0 0.0
2017-Dec-08 19:31N 51°28' E 000°16'0 0.0
2017-Dec-08 19:01N 51°28' E 000°16'0 0.0
2017-Dec-08 18:31N 51°28' E 000°16'0 0.0
2017-Dec-08 18:01N 51°28' E 000°16'0 0.0
2017-Dec-08 17:31N 51°28' E 000°16'0 0.0
2017-Dec-08 17:00N 51°28' E 000°16'0 0.0
2017-Dec-08 16:31N 51°28' E 000°16'0 0.0
2017-Dec-08 16:01N 51°28' E 000°16'0 0.0
2017-Dec-08 15:31N 51°28' E 000°16'0 0.0
2017-Dec-08 15:00N 51°28' E 000°16'0 0.0
2017-Dec-08 14:31N 51°28' E 000°16'0 0.0
2017-Dec-08 14:01N 51°28' E 000°16'0 0.0
2017-Dec-08 13:30N 51°28' E 000°16'0 0.0
2017-Dec-08 13:01N 51°28' E 000°16'0 0.0
2017-Dec-08 12:31N 51°28' E 000°16'0 0.0
2017-Dec-08 12:01N 51°28' E 000°16'0 0.0
2017-Dec-08 11:31N 51°28' E 000°16'0 0.0
2017-Dec-08 11:01N 51°28' E 000°16'0 0.0
2017-Dec-08 10:31N 51°28' E 000°16'0 0.0
2017-Dec-08 10:01N 51°28' E 000°16'0 0.0
2017-Dec-08 09:31N 51°28' E 000°16'0 0.0
2017-Dec-08 09:01N 51°28' E 000°16'0 0.0
2017-Dec-08 08:31N 51°28' E 000°16'0 0.0
2017-Dec-08 08:01N 51°28' E 000°16'0 0.0
2017-Dec-08 07:31N 51°28' E 000°16'0 0.0
2017-Dec-08 07:01N 51°28' E 000°16'0 0.0
2017-Dec-08 06:31N 51°28' E 000°16'0 0.0
2017-Dec-08 06:01N 51°28' E 000°16'0 0.0
2017-Dec-08 05:31N 51°28' E 000°16'0 0.0
2017-Dec-08 05:01N 51°28' E 000°16'0 0.0
2017-Dec-08 04:31N 51°28' E 000°16'0 0.0
2017-Dec-08 04:01N 51°28' E 000°16'0 0.0
2017-Dec-08 03:31N 51°28' E 000°16'0 0.0
2017-Dec-08 03:01N 51°28' E 000°16'0 0.0
2017-Dec-08 02:31N 51°28' E 000°16'0 0.0
2017-Dec-08 02:01N 51°28' E 000°16'0 0.0
2017-Dec-08 01:31N 51°28' E 000°16'0 0.0
2017-Dec-08 01:01N 51°28' E 000°16'0 0.0
2017-Dec-08 00:31N 51°28' E 000°16'0 0.0
2017-Dec-08 00:01N 51°28' E 000°16'0 0.0
2017-Dec-07 23:31N 51°28' E 000°16'0 0.0
2017-Dec-07 23:01N 51°28' E 000°16'0 0.0
2017-Dec-07 22:31N 51°28' E 000°16'0 0.0
2017-Dec-07 22:01N 51°28' E 000°16'0 0.0
2017-Dec-07 21:31N 51°28' E 000°16'0 0.0
2017-Dec-07 21:01N 51°28' E 000°16'0 0.0
2017-Dec-07 20:31N 51°28' E 000°16'2 3.9
2017-Dec-07 20:01N 51°28' E 000°19'2 3.1
2017-Dec-07 19:31N 51°27' E 000°20'0 0.0
2017-Dec-07 19:01N 51°27' E 000°20'  
Track history (hours):
 
Tides and Currents Weather Stations Pressure Air Temp Water Temp Dewpoint Dewpoint Depression Visibility Wind Speed Wind Dir Waves Ship Positions

Hanjin Sanfrancisco

Last reported at 2017-Dec-17 18:47 UTC. Time now 2017-Dec-18 16:56 UTC.
Position N 48°32' W 006°06'.

Length 289 m; draft 11.1 m.

Type: Cargo ship. MMSI: 351989000.

Date/timePositionNaut miles runAvg speedWind from/ knotsBaromVisibWave heightAir tempDewpointWater temp
2017-Dec-17 18:47N 48°32' W 006°06'411.8
2017-Dec-17 18:27N 48°35' W 006°03'511.6
2017-Dec-17 17:59N 48°40' W 005°58'611.5
2017-Dec-17 17:30N 48°44' W 005°54'611.0
2017-Dec-17 17:00N 48°49' W 005°50'710.8
2017-Dec-17 16:21N 48°55' W 005°44'410.4
2017-Dec-17 15:59N 48°57' W 005°40'6 9.8
2017-Dec-17 15:25N 49°01' W 005°33'8711.5
2017-Dec-17 07:49N 49°44' W 003°37'411.6
2017-Dec-17 07:28N 49°46' W 003°31'511.1
2017-Dec-17 07:01N 49°48' W 003°24'510.7
2017-Dec-17 06:31N 49°51' W 003°17'510.7
2017-Dec-17 06:01N 49°54' W 003°10'510.6
2017-Dec-17 05:31N 49°56' W 003°03'510.9
2017-Dec-17 05:01N 49°59' W 002°55'611.1
2017-Dec-17 04:31N 50°01' W 002°47'611.5
2017-Dec-17 04:01N 50°02' W 002°39'8813.6
2017-Dec-16 21:33N 50°26' W 000°27'110.9
2017-Dec-16 21:30N 50°26' W 000°26'510.7
2017-Dec-16 21:00N 50°28' W 000°18'510.4
2017-Dec-16 20:30N 50°29' W 000°10'510.0
2017-Dec-16 20:00N 50°31' W 000°03'5 9.8
2017-Dec-16 19:30N 50°32' E 000°05'5 9.8
2017-Dec-16 19:00N 50°33' E 000°12'510.2
2017-Dec-16 18:30N 50°35' E 000°20'510.7
2017-Dec-16 18:00N 50°36' E 000°28'611.5
2017-Dec-16 17:30N 50°38' E 000°36'612.4
2017-Dec-16 17:00N 50°42' E 000°44'713.1
2017-Dec-16 16:30N 50°46' E 000°52'713.3
2017-Dec-16 16:00N 50°50' E 001°01'713.3
2017-Dec-16 15:30N 50°54' E 001°09'613.0
2017-Dec-16 15:00N 50°59' E 001°17'612.6
2017-Dec-16 14:30N 51°03' E 001°24'611.9
2017-Dec-16 14:00N 51°07' E 001°31'510.8
2017-Dec-16 13:30N 51°11' E 001°37'510.5
2017-Dec-16 13:00N 51°16' E 001°38'510.8
2017-Dec-16 12:30N 51°21' E 001°37'611.6
2017-Dec-16 12:01N 51°26' E 001°32'4 8.7
2017-Dec-16 11:30N 51°28' E 001°25'611.9
2017-Dec-16 11:00N 51°29' E 001°16'611.5
2017-Dec-16 10:28N 51°29' E 001°06'9 0.5
2017-Dec-15 14:38N 51°30' E 000°51'0 0.0
2017-Dec-15 12:37N 51°30' E 000°51'0 0.1
2017-Dec-15 12:30N 51°30' E 000°51'0 0.0
2017-Dec-15 12:00N 51°30' E 000°51'0 0.0
2017-Dec-15 11:30N 51°30' E 000°51'0 0.1
2017-Dec-15 11:00N 51°30' E 000°51'0 0.0
2017-Dec-15 10:30N 51°30' E 000°51'0 0.1
2017-Dec-15 10:00N 51°30' E 000°51'0 0.1
2017-Dec-15 09:30N 51°30' E 000°51'0 0.1
2017-Dec-15 09:00N 51°30' E 000°51'0 0.0
2017-Dec-15 08:29N 51°30' E 000°51'0 0.0
2017-Dec-15 08:00N 51°30' E 000°51'0 0.0
2017-Dec-15 07:30N 51°30' E 000°51'0 0.0
2017-Dec-15 07:00N 51°30' E 000°51'0 0.0
2017-Dec-15 06:30N 51°30' E 000°51'0 0.1
2017-Dec-15 06:00N 51°30' E 000°51'0 0.2
2017-Dec-15 05:30N 51°30' E 000°51'0 0.0
2017-Dec-15 05:00N 51°30' E 000°51'0 0.0
2017-Dec-15 04:30N 51°30' E 000°51'0 0.0
2017-Dec-15 04:00N 51°30' E 000°51'0 0.0
2017-Dec-15 02:30N 51°30' E 000°51'0 0.0
2017-Dec-15 01:00N 51°30' E 000°51'0 0.0
2017-Dec-15 00:30N 51°30' E 000°51'0 0.0
2017-Dec-14 18:30N 51°30' E 000°51'0 0.0
2017-Dec-14 18:00N 51°30' E 000°51'0 0.2
2017-Dec-14 17:30N 51°30' E 000°51'0 0.2
2017-Dec-14 16:59N 51°30' E 000°51'0 0.0
2017-Dec-14 16:31N 51°30' E 000°51'0 0.0
2017-Dec-14 16:00N 51°30' E 000°51'0 0.0
2017-Dec-14 15:00N 51°30' E 000°51'0 0.0
2017-Dec-14 14:30N 51°30' E 000°51'0 0.0
2017-Dec-14 14:00N 51°30' E 000°51'0 0.0
2017-Dec-14 13:30N 51°30' E 000°51'0 0.0
2017-Dec-14 13:00N 51°30' E 000°51'0 0.0
2017-Dec-14 12:30N 51°30' E 000°51'0 0.0
2017-Dec-14 12:00N 51°30' E 000°51'0 0.0
2017-Dec-14 11:31N 51°30' E 000°51'0 0.0
2017-Dec-14 11:01N 51°30' E 000°51'0 0.0
2017-Dec-14 10:30N 51°30' E 000°51'0 0.0
2017-Dec-14 10:01N 51°30' E 000°51'0 0.1
2017-Dec-14 09:30N 51°30' E 000°51'0 0.0
2017-Dec-14 09:00N 51°30' E 000°51'0 0.1
2017-Dec-14 08:31N 51°30' E 000°51'0 0.1
2017-Dec-14 08:00N 51°30' E 000°51'0 0.1
2017-Dec-14 07:30N 51°30' E 000°51'0 0.0
2017-Dec-14 07:00N 51°30' E 000°51'0 0.1
2017-Dec-14 06:31N 51°30' E 000°51'0 0.0
2017-Dec-14 06:00N 51°30' E 000°51'0 0.1
2017-Dec-14 05:30N 51°30' E 000°51'0 0.1
2017-Dec-14 05:00N 51°30' E 000°51'0 0.0
2017-Dec-14 04:30N 51°30' E 000°51'0 0.0
2017-Dec-14 04:00N 51°30' E 000°51'0 0.1
2017-Dec-14 03:30N 51°30' E 000°51'0 0.0
2017-Dec-14 03:00N 51°30' E 000°51'0 0.0
2017-Dec-14 02:30N 51°30' E 000°51'0 0.0
2017-Dec-14 02:00N 51°30' E 000°51'0 0.0
2017-Dec-14 01:30N 51°30' E 000°51'0 0.1
2017-Dec-14 01:00N 51°30' E 000°51'0 0.0
2017-Dec-14 00:30N 51°30' E 000°51'0 0.0
2017-Dec-14 00:00N 51°30' E 000°51'0 0.0
2017-Dec-13 23:30N 51°30' E 000°51'0 0.0
2017-Dec-13 23:00N 51°30' E 000°51'0 0.1
2017-Dec-13 22:31N 51°30' E 000°51'0 0.0
2017-Dec-13 22:00N 51°30' E 000°51'0 0.1
2017-Dec-13 21:30N 51°30' E 000°51'0 0.0
2017-Dec-13 21:00N 51°30' E 000°51'0 0.1
2017-Dec-13 20:30N 51°30' E 000°51'0 0.2
2017-Dec-13 20:00N 51°30' E 000°51'0 0.0
2017-Dec-13 19:31N 51°30' E 000°51'0 0.1
2017-Dec-13 19:01N 51°30' E 000°51'0 0.0
2017-Dec-13 18:31N 51°30' E 000°51'0 0.0
2017-Dec-13 18:00N 51°30' E 000°51'0 0.2
2017-Dec-13 17:30N 51°30' E 000°51'0 0.1
2017-Dec-13 17:00N 51°30' E 000°51'0 0.1
2017-Dec-13 16:31N 51°30' E 000°51'0 0.3
2017-Dec-13 16:00N 51°30' E 000°51'0 0.0
2017-Dec-13 15:30N 51°30' E 000°51'0 0.1
2017-Dec-13 15:00N 51°30' E 000°51'0 0.0
2017-Dec-13 14:31N 51°30' E 000°51'0 0.0
2017-Dec-13 14:01N 51°30' E 000°51'0 0.0
2017-Dec-13 13:30N 51°30' E 000°51'0 0.0
2017-Dec-13 13:00N 51°30' E 000°51'0 0.0
2017-Dec-12 21:29N 51°30' E 000°51'0 0.1
2017-Dec-12 21:00N 51°30' E 000°51'0 0.0
2017-Dec-12 20:30N 51°30' E 000°51'0 0.1
2017-Dec-12 20:00N 51°30' E 000°51'0 0.1
2017-Dec-12 19:30N 51°30' E 000°51'0 0.1
2017-Dec-12 19:00N 51°30' E 000°51'0 0.0
2017-Dec-12 18:30N 51°30' E 000°51'0 0.0
2017-Dec-12 18:00N 51°30' E 000°51'0 0.0
2017-Dec-12 17:30N 51°30' E 000°51'0 0.0
2017-Dec-12 17:00N 51°30' E 000°51'0 0.0
2017-Dec-12 16:30N 51°30' E 000°51'0 0.0
2017-Dec-12 16:00N 51°30' E 000°51'0 0.1
2017-Dec-12 15:30N 51°30' E 000°51'0 0.0
2017-Dec-12 15:00N 51°30' E 000°51'0 0.2
2017-Dec-12 14:30N 51°30' E 000°51'0 0.0
2017-Dec-12 14:00N 51°30' E 000°51'0 0.0
2017-Dec-12 13:30N 51°30' E 000°51'0 0.0
2017-Dec-12 13:00N 51°30' E 000°51'0 0.0
2017-Dec-12 12:30N 51°30' E 000°51'0 0.0
2017-Dec-12 12:00N 51°30' E 000°51'0 0.0
2017-Dec-12 11:30N 51°30' E 000°51'0 0.0
2017-Dec-12 11:00N 51°30' E 000°51'0 0.0
2017-Dec-12 10:30N 51°30' E 000°51'0 0.0
2017-Dec-12 10:00N 51°30' E 000°51'0 0.0
2017-Dec-12 09:30N 51°30' E 000°51'0 0.0
2017-Dec-12 09:00N 51°30' E 000°51'0 0.0
2017-Dec-12 08:30N 51°30' E 000°51'0 0.0
2017-Dec-12 08:00N 51°30' E 000°51'0 0.0
2017-Dec-12 07:30N 51°30' E 000°51'0 0.1
2017-Dec-12 06:59N 51°30' E 000°51'0 0.1
2017-Dec-12 06:30N 51°30' E 000°51'0 0.1
2017-Dec-12 06:00N 51°30' E 000°51'0 0.0
2017-Dec-12 05:30N 51°30' E 000°51'0 0.1
2017-Dec-12 05:00N 51°30' E 000°51'0 0.0
2017-Dec-12 04:30N 51°30' E 000°51'0 0.0
2017-Dec-12 04:00N 51°30' E 000°51'0 0.0
2017-Dec-12 03:30N 51°30' E 000°51'0 0.0
2017-Dec-12 03:00N 51°30' E 000°51'0 0.1
2017-Dec-12 02:30N 51°30' E 000°51'0 0.1
2017-Dec-12 02:00N 51°30' E 000°51'0 0.1
2017-Dec-12 01:30N 51°30' E 000°51'0 0.0
2017-Dec-12 01:00N 51°30' E 000°51'0 0.0
2017-Dec-12 00:30N 51°30' E 000°51'0 0.0
2017-Dec-12 00:00N 51°30' E 000°51'0 0.0
2017-Dec-11 23:30N 51°30' E 000°51'0 0.0
2017-Dec-11 23:00N 51°30' E 000°51'0 0.0
2017-Dec-11 22:30N 51°30' E 000°51'0 0.0
2017-Dec-11 22:00N 51°30' E 000°51'0 0.0
2017-Dec-11 21:30N 51°30' E 000°51'0 0.0
2017-Dec-11 21:00N 51°30' E 000°51'0 0.0
2017-Dec-11 20:30N 51°30' E 000°51'0 0.0
2017-Dec-11 20:00N 51°30' E 000°51'0 0.0
2017-Dec-11 19:30N 51°30' E 000°51'0 0.1
2017-Dec-11 18:52N 51°30' E 000°51'0 0.2
2017-Dec-11 18:30N 51°30' E 000°51'0 0.1
2017-Dec-11 18:00N 51°30' E 000°51'0 0.0
2017-Dec-11 17:30N 51°30' E 000°51'0 0.0
2017-Dec-11 17:00N 51°30' E 000°51'0 0.0
2017-Dec-11 16:30N 51°30' E 000°51'0 0.0
2017-Dec-11 15:59N 51°30' E 000°51'0 0.0
2017-Dec-11 15:30N 51°30' E 000°51'0 0.0
2017-Dec-11 15:00N 51°30' E 000°51'0 0.1
2017-Dec-11 14:30N 51°30' E 000°51'0 0.0
2017-Dec-11 14:00N 51°30' E 000°51'0 0.0
2017-Dec-11 13:30N 51°30' E 000°51'0 0.1
2017-Dec-11 13:00N 51°30' E 000°51'1 1.0
2017-Dec-11 12:31N 51°29' E 000°51'3 6.9
2017-Dec-11 12:00N 51°29' E 000°46'612.4
2017-Dec-11 11:31N 51°30' E 000°36'611.8
2017-Dec-11 11:01N 51°28' E 000°27'5 9.6
2017-Dec-11 10:31N 51°28' E 000°19'2 4.3
2017-Dec-11 10:01N 51°28' E 000°16'0 0.0
2017-Dec-11 09:16N 51°28' E 000°16'0 0.0
2017-Dec-11 09:01N 51°28' E 000°16'0 0.0
2017-Dec-11 08:31N 51°28' E 000°16'0 0.0
2017-Dec-11 08:01N 51°28' E 000°16'0 0.0
2017-Dec-11 07:31N 51°28' E 000°16'0 0.0
2017-Dec-11 07:01N 51°28' E 000°16'0 0.0
2017-Dec-11 06:31N 51°28' E 000°16'0 0.0
2017-Dec-11 06:01N 51°28' E 000°16'0 0.0
2017-Dec-11 05:31N 51°28' E 000°16'0 0.0
2017-Dec-11 05:01N 51°28' E 000°16'0 0.0
2017-Dec-11 04:31N 51°28' E 000°16'0 0.0
2017-Dec-11 04:01N 51°28' E 000°16'0 0.0
2017-Dec-11 03:31N 51°28' E 000°16'0 0.0
2017-Dec-11 03:01N 51°28' E 000°16'0 0.0
2017-Dec-11 02:31N 51°28' E 000°16'0 0.0
2017-Dec-11 02:00N 51°28' E 000°16'0 0.0
2017-Dec-11 01:31N 51°28' E 000°16'0 0.0
2017-Dec-11 01:01N 51°28' E 000°16'0 0.0
2017-Dec-11 00:31N 51°28' E 000°16'0 0.0
2017-Dec-11 00:01N 51°28' E 000°16'0 0.0
2017-Dec-10 23:30N 51°28' E 000°16'0 0.0
2017-Dec-10 23:01N 51°28' E 000°16'0 0.0
2017-Dec-10 22:31N 51°28' E 000°16'0 0.0
2017-Dec-10 22:01N 51°28' E 000°16'0 0.0
2017-Dec-10 21:31N 51°28' E 000°16'0 0.0
2017-Dec-09 04:14N 51°28' E 000°16'0 0.0
2017-Dec-09 04:01N 51°28' E 000°16'0 0.0
2017-Dec-09 03:31N 51°28' E 000°16'0 0.0
2017-Dec-09 03:01N 51°28' E 000°16'0 0.0
2017-Dec-09 02:31N 51°28' E 000°16'0 0.0
2017-Dec-09 02:01N 51°28' E 000°16'0 0.0
2017-Dec-09 01:31N 51°28' E 000°16'0 0.0
2017-Dec-09 01:01N 51°28' E 000°16'0 0.0
2017-Dec-09 00:31N 51°28' E 000°16'0 0.0
2017-Dec-09 00:01N 51°28' E 000°16'0 0.0
2017-Dec-08 23:31N 51°28' E 000°16'0 0.0
2017-Dec-08 23:01N 51°28' E 000°16'0 0.0
2017-Dec-08 22:31N 51°28' E 000°16'0 0.0
2017-Dec-08 22:01N 51°28' E 000°16'0 0.0
2017-Dec-08 21:31N 51°28' E 000°16'0 0.0
2017-Dec-08 21:01N 51°28' E 000°16'0 0.0
2017-Dec-08 20:31N 51°28' E 000°16'0 0.0
2017-Dec-08 20:01N 51°28' E 000°16'0 0.0
2017-Dec-08 19:31N 51°28' E 000°16'0 0.0
2017-Dec-08 19:01N 51°28' E 000°16'0 0.0
2017-Dec-08 18:31N 51°28' E 000°16'0 0.0
2017-Dec-08 18:01N 51°28' E 000°16'0 0.0
2017-Dec-08 17:31N 51°28' E 000°16'0 0.0
2017-Dec-08 17:00N 51°28' E 000°16'0 0.0
2017-Dec-08 16:31N 51°28' E 000°16'0 0.0
2017-Dec-08 16:01N 51°28' E 000°16'0 0.0
2017-Dec-08 15:31N 51°28' E 000°16'0 0.0
2017-Dec-08 15:00N 51°28' E 000°16'0 0.0
2017-Dec-08 14:31N 51°28' E 000°16'0 0.0
2017-Dec-08 14:01N 51°28' E 000°16'0 0.0
2017-Dec-08 13:30N 51°28' E 000°16'0 0.0
2017-Dec-08 13:01N 51°28' E 000°16'0 0.0
2017-Dec-08 12:31N 51°28' E 000°16'0 0.0
2017-Dec-08 12:01N 51°28' E 000°16'0 0.0
2017-Dec-08 11:31N 51°28' E 000°16'0 0.0
2017-Dec-08 11:01N 51°28' E 000°16'0 0.0
2017-Dec-08 10:31N 51°28' E 000°16'0 0.0
2017-Dec-08 10:01N 51°28' E 000°16'0 0.0
2017-Dec-08 09:31N 51°28' E 000°16'0 0.0
2017-Dec-08 09:01N 51°28' E 000°16'0 0.0
2017-Dec-08 08:31N 51°28' E 000°16'0 0.0
2017-Dec-08 08:01N 51°28' E 000°16'0 0.0
2017-Dec-08 07:31N 51°28' E 000°16'0 0.0
2017-Dec-08 07:01N 51°28' E 000°16'0 0.0
2017-Dec-08 06:31N 51°28' E 000°16'0 0.0
2017-Dec-08 06:01N 51°28' E 000°16'0 0.0
2017-Dec-08 05:31N 51°28' E 000°16'0 0.0
2017-Dec-08 05:01N 51°28' E 000°16'0 0.0
2017-Dec-08 04:31N 51°28' E 000°16'0 0.0
2017-Dec-08 04:01N 51°28' E 000°16'0 0.0
2017-Dec-08 03:31N 51°28' E 000°16'0 0.0
2017-Dec-08 03:01N 51°28' E 000°16'0 0.0
2017-Dec-08 02:31N 51°28' E 000°16'0 0.0
2017-Dec-08 02:01N 51°28' E 000°16'0 0.0
2017-Dec-08 01:31N 51°28' E 000°16'0 0.0
2017-Dec-08 01:01N 51°28' E 000°16'0 0.0
2017-Dec-08 00:31N 51°28' E 000°16'0 0.0
2017-Dec-08 00:01N 51°28' E 000°16'0 0.0
2017-Dec-07 23:31N 51°28' E 000°16'0 0.0
2017-Dec-07 23:01N 51°28' E 000°16'0 0.0
2017-Dec-07 22:31N 51°28' E 000°16'0 0.0
2017-Dec-07 22:01N 51°28' E 000°16'0 0.0
2017-Dec-07 21:31N 51°28' E 000°16'0 0.0
2017-Dec-07 21:01N 51°28' E 000°16'0 0.0
2017-Dec-07 20:31N 51°28' E 000°16'2 3.9
2017-Dec-07 20:01N 51°28' E 000°19'2 3.1
2017-Dec-07 19:31N 51°27' E 000°20'0 0.0
2017-Dec-07 19:01N 51°27' E 000°20'  

Dump ship's entire track history